sensor_id;sensor_type;location;lat;lon;timestamp;P1;durP1;ratioP1;P2;durP2;ratioP2
62709;SDS011;48770;51.624;5.886;2023-04-03T00:00:37;0.40;;;0.40;;
62709;SDS011;48770;51.624;5.886;2023-04-03T00:03:02;0.22;;;0.20;;
62709;SDS011;48770;51.624;5.886;2023-04-03T00:05:27;0.65;;;0.38;;
62709;SDS011;48770;51.624;5.886;2023-04-03T00:07:53;0.50;;;0.30;;
62709;SDS011;48770;51.624;5.886;2023-04-03T00:10:19;1.45;;;0.60;;
62709;SDS011;48770;51.624;5.886;2023-04-03T00:12:44;0.60;;;0.40;;
62709;SDS011;48770;51.624;5.886;2023-04-03T00:15:10;0.50;;;0.40;;
62709;SDS011;48770;51.624;5.886;2023-04-03T00:17:35;0.55;;;0.40;;
62709;SDS011;48770;51.624;5.886;2023-04-03T00:20:01;0.88;;;0.43;;
62709;SDS011;48770;51.624;5.886;2023-04-03T00:22:28;0.52;;;0.35;;
62709;SDS011;48770;51.624;5.886;2023-04-03T00:24:53;0.50;;;0.30;;
62709;SDS011;48770;51.624;5.886;2023-04-03T00:27:19;0.65;;;0.35;;
62709;SDS011;48770;51.624;5.886;2023-04-03T00:29:45;0.85;;;0.22;;
62709;SDS011;48770;51.624;5.886;2023-04-03T00:32:10;0.80;;;0.52;;
62709;SDS011;48770;51.624;5.886;2023-04-03T00:34:35;0.60;;;0.40;;
62709;SDS011;48770;51.624;5.886;2023-04-03T00:37:01;0.52;;;0.40;;
62709;SDS011;48770;51.624;5.886;2023-04-03T00:39:26;0.55;;;0.40;;
62709;SDS011;48770;51.624;5.886;2023-04-03T00:41:51;0.55;;;0.30;;
62709;SDS011;48770;51.624;5.886;2023-04-03T00:47:00;0.55;;;0.40;;
62709;SDS011;48770;51.624;5.886;2023-04-03T00:49:28;1.20;;;0.55;;
62709;SDS011;48770;51.624;5.886;2023-04-03T00:51:54;0.68;;;0.32;;
62709;SDS011;48770;51.624;5.886;2023-04-03T00:54:22;0.80;;;0.50;;
62709;SDS011;48770;51.624;5.886;2023-04-03T00:56:47;0.68;;;0.40;;
62709;SDS011;48770;51.624;5.886;2023-04-03T00:59:15;1.00;;;0.40;;
62709;SDS011;48770;51.624;5.886;2023-04-03T01:01:47;0.40;;;0.30;;
62709;SDS011;48770;51.624;5.886;2023-04-03T01:04:26;0.70;;;0.40;;
62709;SDS011;48770;51.624;5.886;2023-04-03T01:07:01;0.50;;;0.45;;
62709;SDS011;48770;51.624;5.886;2023-04-03T01:09:30;0.95;;;0.40;;
62709;SDS011;48770;51.624;5.886;2023-04-03T01:12:16;1.08;;;0.40;;
62709;SDS011;48770;51.624;5.886;2023-04-03T01:14:42;0.60;;;0.30;;
62709;SDS011;48770;51.624;5.886;2023-04-03T01:17:26;0.85;;;0.30;;
62709;SDS011;48770;51.624;5.886;2023-04-03T01:25:44;0.60;;;0.35;;
62709;SDS011;48770;51.624;5.886;2023-04-03T01:28:13;0.60;;;0.40;;
62709;SDS011;48770;51.624;5.886;2023-04-03T01:30:43;0.45;;;0.20;;
62709;SDS011;48770;51.624;5.886;2023-04-03T01:33:15;0.52;;;0.30;;
62709;SDS011;48770;51.624;5.886;2023-04-03T01:35:40;0.52;;;0.30;;
62709;SDS011;48770;51.624;5.886;2023-04-03T01:38:05;0.50;;;0.35;;
62709;SDS011;48770;51.624;5.886;2023-04-03T01:40:31;0.20;;;0.20;;
62709;SDS011;48770;51.624;5.886;2023-04-03T01:42:57;1.58;;;0.40;;
62709;SDS011;48770;51.624;5.886;2023-04-03T01:45:22;0.43;;;0.40;;
62709;SDS011;48770;51.624;5.886;2023-04-03T01:47:47;0.40;;;0.30;;
62709;SDS011;48770;51.624;5.886;2023-04-03T01:50:13;0.75;;;0.40;;
62709;SDS011;48770;51.624;5.886;2023-04-03T01:52:38;0.90;;;0.35;;
62709;SDS011;48770;51.624;5.886;2023-04-03T01:55:03;0.50;;;0.30;;
62709;SDS011;48770;51.624;5.886;2023-04-03T01:57:29;0.22;;;0.20;;
62709;SDS011;48770;51.624;5.886;2023-04-03T01:59:55;0.55;;;0.30;;
62709;SDS011;48770;51.624;5.886;2023-04-03T02:02:20;0.30;;;0.30;;
62709;SDS011;48770;51.624;5.886;2023-04-03T02:04:45;0.30;;;0.20;;
62709;SDS011;48770;51.624;5.886;2023-04-03T02:07:11;0.38;;;0.38;;
62709;SDS011;48770;51.624;5.886;2023-04-03T02:09:36;0.32;;;0.32;;
62709;SDS011;48770;51.624;5.886;2023-04-03T02:12:01;0.52;;;0.30;;
62709;SDS011;48770;51.624;5.886;2023-04-03T02:14:27;0.32;;;0.20;;
62709;SDS011;48770;51.624;5.886;2023-04-03T02:16:52;0.50;;;0.28;;
62709;SDS011;48770;51.624;5.886;2023-04-03T02:19:18;0.65;;;0.40;;
62709;SDS011;48770;51.624;5.886;2023-04-03T02:21:43;0.80;;;0.25;;
62709;SDS011;48770;51.624;5.886;2023-04-03T02:24:08;0.43;;;0.20;;
62709;SDS011;48770;51.624;5.886;2023-04-03T02:26:34;0.57;;;0.30;;
62709;SDS011;48770;51.624;5.886;2023-04-03T02:28:59;0.60;;;0.30;;
62709;SDS011;48770;51.624;5.886;2023-04-03T02:31:24;0.57;;;0.30;;
62709;SDS011;48770;51.624;5.886;2023-04-03T02:33:50;0.30;;;0.30;;
62709;SDS011;48770;51.624;5.886;2023-04-03T02:36:15;0.30;;;0.30;;
62709;SDS011;48770;51.624;5.886;2023-04-03T02:38:41;0.30;;;0.28;;
62709;SDS011;48770;51.624;5.886;2023-04-03T02:41:07;0.77;;;0.50;;
62709;SDS011;48770;51.624;5.886;2023-04-03T02:43:34;0.73;;;0.40;;
62709;SDS011;48770;51.624;5.886;2023-04-03T02:45:59;0.30;;;0.30;;
62709;SDS011;48770;51.624;5.886;2023-04-03T02:48:25;0.55;;;0.30;;
62709;SDS011;48770;51.624;5.886;2023-04-03T02:50:51;0.45;;;0.30;;
62709;SDS011;48770;51.624;5.886;2023-04-03T02:53:16;0.20;;;0.20;;
62709;SDS011;48770;51.624;5.886;2023-04-03T02:55:41;0.60;;;0.40;;
62709;SDS011;48770;51.624;5.886;2023-04-03T02:58:07;0.28;;;0.22;;
62709;SDS011;48770;51.624;5.886;2023-04-03T03:00:33;0.52;;;0.30;;
62709;SDS011;48770;51.624;5.886;2023-04-03T03:02:58;0.35;;;0.30;;
62709;SDS011;48770;51.624;5.886;2023-04-03T03:05:23;1.85;;;0.30;;
62709;SDS011;48770;51.624;5.886;2023-04-03T03:07:49;0.20;;;0.13;;
62709;SDS011;48770;51.624;5.886;2023-04-03T03:10:14;0.43;;;0.30;;
62709;SDS011;48770;51.624;5.886;2023-04-03T03:12:40;0.30;;;0.30;;
62709;SDS011;48770;51.624;5.886;2023-04-03T03:15:07;0.40;;;0.20;;
62709;SDS011;48770;51.624;5.886;2023-04-03T03:17:33;0.43;;;0.30;;
62709;SDS011;48770;51.624;5.886;2023-04-03T03:19:58;0.43;;;0.20;;
62709;SDS011;48770;51.624;5.886;2023-04-03T03:22:23;0.47;;;0.30;;
62709;SDS011;48770;51.624;5.886;2023-04-03T03:24:49;0.52;;;0.38;;
62709;SDS011;48770;51.624;5.886;2023-04-03T03:27:15;0.25;;;0.20;;
62709;SDS011;48770;51.624;5.886;2023-04-03T03:29:41;0.22;;;0.20;;
62709;SDS011;48770;51.624;5.886;2023-04-03T03:32:07;0.30;;;0.20;;
62709;SDS011;48770;51.624;5.886;2023-04-03T03:34:32;0.20;;;0.20;;
62709;SDS011;48770;51.624;5.886;2023-04-03T03:36:57;0.30;;;0.20;;
62709;SDS011;48770;51.624;5.886;2023-04-03T03:39:23;0.85;;;0.40;;
62709;SDS011;48770;51.624;5.886;2023-04-03T03:41:48;0.50;;;0.20;;
62709;SDS011;48770;51.624;5.886;2023-04-03T03:44:14;0.68;;;0.40;;
62709;SDS011;48770;51.624;5.886;2023-04-03T03:46:40;0.25;;;0.10;;
62709;SDS011;48770;51.624;5.886;2023-04-03T03:49:05;0.38;;;0.25;;
62709;SDS011;48770;51.624;5.886;2023-04-03T03:51:30;1.08;;;0.25;;
62709;SDS011;48770;51.624;5.886;2023-04-03T03:53:56;0.20;;;0.20;;
62709;SDS011;48770;51.624;5.886;2023-04-03T03:56:21;0.47;;;0.30;;
62709;SDS011;48770;51.624;5.886;2023-04-03T03:58:46;0.32;;;0.30;;
62709;SDS011;48770;51.624;5.886;2023-04-03T04:01:12;0.28;;;0.22;;
62709;SDS011;48770;51.624;5.886;2023-04-03T04:03:37;0.20;;;0.10;;
62709;SDS011;48770;51.624;5.886;2023-04-03T04:06:03;0.77;;;0.30;;
62709;SDS011;48770;51.624;5.886;2023-04-03T04:08:28;0.50;;;0.30;;
62709;SDS011;48770;51.624;5.886;2023-04-03T04:10:54;0.22;;;0.10;;
62709;SDS011;48770;51.624;5.886;2023-04-03T04:13:19;0.30;;;0.20;;
62709;SDS011;48770;51.624;5.886;2023-04-03T04:15:45;0.40;;;0.20;;
62709;SDS011;48770;51.624;5.886;2023-04-03T04:18:10;0.22;;;0.10;;
62709;SDS011;48770;51.624;5.886;2023-04-03T04:20:36;0.40;;;0.20;;
62709;SDS011;48770;51.624;5.886;2023-04-03T04:23:01;0.10;;;0.10;;
62709;SDS011;48770;51.624;5.886;2023-04-03T04:25:27;0.25;;;0.20;;
62709;SDS011;48770;51.624;5.886;2023-04-03T04:27:52;0.23;;;0.20;;
62709;SDS011;48770;51.624;5.886;2023-04-03T04:30:17;0.30;;;0.20;;
62709;SDS011;48770;51.624;5.886;2023-04-03T04:32:42;0.30;;;0.20;;
62709;SDS011;48770;51.624;5.886;2023-04-03T04:35:08;0.40;;;0.30;;
62709;SDS011;48770;51.624;5.886;2023-04-03T04:37:33;0.32;;;0.10;;
62709;SDS011;48770;51.624;5.886;2023-04-03T04:39:59;0.57;;;0.20;;
62709;SDS011;48770;51.624;5.886;2023-04-03T04:42:24;0.95;;;0.20;;
62709;SDS011;48770;51.624;5.886;2023-04-03T04:44:49;0.90;;;0.20;;
62709;SDS011;48770;51.624;5.886;2023-04-03T04:47:15;0.40;;;0.17;;
62709;SDS011;48770;51.624;5.886;2023-04-03T04:49:40;0.30;;;0.20;;
62709;SDS011;48770;51.624;5.886;2023-04-03T04:52:06;0.20;;;0.20;;
62709;SDS011;48770;51.624;5.886;2023-04-03T04:54:31;0.30;;;0.20;;
62709;SDS011;48770;51.624;5.886;2023-04-03T04:56:57;0.20;;;0.20;;
62709;SDS011;48770;51.624;5.886;2023-04-03T04:59:22;0.55;;;0.20;;
62709;SDS011;48770;51.624;5.886;2023-04-03T05:01:48;0.63;;;0.20;;
62709;SDS011;48770;51.624;5.886;2023-04-03T05:04:13;0.30;;;0.20;;
62709;SDS011;48770;51.624;5.886;2023-04-03T05:06:38;0.38;;;0.20;;
62709;SDS011;48770;51.624;5.886;2023-04-03T05:09:04;0.65;;;0.10;;
62709;SDS011;48770;51.624;5.886;2023-04-03T05:11:30;0.22;;;0.10;;
62709;SDS011;48770;51.624;5.886;2023-04-03T05:13:55;0.17;;;0.17;;
62709;SDS011;48770;51.624;5.886;2023-04-03T05:16:21;0.22;;;0.20;;
62709;SDS011;48770;51.624;5.886;2023-04-03T05:18:46;0.32;;;0.25;;
62709;SDS011;48770;51.624;5.886;2023-04-03T05:21:11;0.70;;;0.15;;
62709;SDS011;48770;51.624;5.886;2023-04-03T05:23:37;0.38;;;0.20;;
62709;SDS011;48770;51.624;5.886;2023-04-03T05:26:02;0.40;;;0.20;;
62709;SDS011;48770;51.624;5.886;2023-04-03T05:28:28;0.30;;;0.20;;
62709;SDS011;48770;51.624;5.886;2023-04-03T05:30:54;0.30;;;0.20;;
62709;SDS011;48770;51.624;5.886;2023-04-03T05:33:21;0.17;;;0.17;;
62709;SDS011;48770;51.624;5.886;2023-04-03T05:35:46;0.35;;;0.20;;
62709;SDS011;48770;51.624;5.886;2023-04-03T05:38:11;0.30;;;0.17;;
62709;SDS011;48770;51.624;5.886;2023-04-03T05:40:37;0.30;;;0.20;;
62709;SDS011;48770;51.624;5.886;2023-04-03T05:43:02;0.20;;;0.20;;
62709;SDS011;48770;51.624;5.886;2023-04-03T05:45:28;0.47;;;0.30;;
62709;SDS011;48770;51.624;5.886;2023-04-03T05:47:53;0.50;;;0.30;;
62709;SDS011;48770;51.624;5.886;2023-04-03T05:50:19;0.10;;;0.10;;
62709;SDS011;48770;51.624;5.886;2023-04-03T05:52:45;0.40;;;0.30;;
62709;SDS011;48770;51.624;5.886;2023-04-03T05:55:13;0.47;;;0.30;;
62709;SDS011;48770;51.624;5.886;2023-04-03T05:57:38;0.25;;;0.10;;
62709;SDS011;48770;51.624;5.886;2023-04-03T06:00:04;0.20;;;0.10;;
62709;SDS011;48770;51.624;5.886;2023-04-03T06:02:31;0.50;;;0.15;;
62709;SDS011;48770;51.624;5.886;2023-04-03T06:04:56;0.20;;;0.10;;
62709;SDS011;48770;51.624;5.886;2023-04-03T06:07:22;0.20;;;0.20;;
62709;SDS011;48770;51.624;5.886;2023-04-03T06:09:52;2.97;;;0.20;;
62709;SDS011;48770;51.624;5.886;2023-04-03T06:12:18;0.40;;;0.28;;
62709;SDS011;48770;51.624;5.886;2023-04-03T06:14:44;0.32;;;0.28;;
62709;SDS011;48770;51.624;5.886;2023-04-03T06:17:10;0.20;;;0.20;;
62709;SDS011;48770;51.624;5.886;2023-04-03T06:19:35;0.45;;;0.10;;
62709;SDS011;48770;51.624;5.886;2023-04-03T06:22:01;0.38;;;0.20;;
62709;SDS011;48770;51.624;5.886;2023-04-03T06:24:27;0.95;;;0.28;;
62709;SDS011;48770;51.624;5.886;2023-04-03T06:26:53;0.38;;;0.20;;
62709;SDS011;48770;51.624;5.886;2023-04-03T06:29:19;0.25;;;0.10;;
62709;SDS011;48770;51.624;5.886;2023-04-03T06:31:46;0.20;;;0.20;;
62709;SDS011;48770;51.624;5.886;2023-04-03T06:34:11;0.80;;;0.30;;
62709;SDS011;48770;51.624;5.886;2023-04-03T06:36:37;0.70;;;0.50;;
62709;SDS011;48770;51.624;5.886;2023-04-03T06:39:03;2.58;;;0.28;;
62709;SDS011;48770;51.624;5.886;2023-04-03T06:41:29;1.15;;;0.40;;
62709;SDS011;48770;51.624;5.886;2023-04-03T06:43:55;1.75;;;0.30;;
62709;SDS011;48770;51.624;5.886;2023-04-03T06:46:23;3.28;;;0.30;;
62709;SDS011;48770;51.624;5.886;2023-04-03T06:48:51;3.80;;;0.57;;
62709;SDS011;48770;51.624;5.886;2023-04-03T06:53:47;5.05;;;0.70;;
62709;SDS011;48770;51.624;5.886;2023-04-03T06:56:13;3.58;;;0.70;;
62709;SDS011;48770;51.624;5.886;2023-04-03T06:58:39;2.40;;;0.70;;
62709;SDS011;48770;51.624;5.886;2023-04-03T07:01:05;2.63;;;1.00;;
62709;SDS011;48770;51.624;5.886;2023-04-03T07:03:30;2.25;;;0.68;;
62709;SDS011;48770;51.624;5.886;2023-04-03T07:05:56;2.80;;;0.73;;
62709;SDS011;48770;51.624;5.886;2023-04-03T07:08:21;2.13;;;0.60;;
62709;SDS011;48770;51.624;5.886;2023-04-03T07:10:48;1.52;;;0.70;;
62709;SDS011;48770;51.624;5.886;2023-04-03T07:13:14;4.07;;;0.98;;
62709;SDS011;48770;51.624;5.886;2023-04-03T07:15:40;2.63;;;0.80;;
62709;SDS011;48770;51.624;5.886;2023-04-03T07:18:05;2.63;;;0.80;;
62709;SDS011;48770;51.624;5.886;2023-04-03T07:20:31;1.30;;;0.80;;
62709;SDS011;48770;51.624;5.886;2023-04-03T07:22:56;3.80;;;0.63;;
62709;SDS011;48770;51.624;5.886;2023-04-03T07:25:21;1.77;;;0.70;;
62709;SDS011;48770;51.624;5.886;2023-04-03T07:27:47;2.70;;;0.98;;
62709;SDS011;48770;51.624;5.886;2023-04-03T07:30:12;0.77;;;0.60;;
62709;SDS011;48770;51.624;5.886;2023-04-03T07:32:39;2.83;;;0.90;;
62709;SDS011;48770;51.624;5.886;2023-04-03T07:35:04;2.25;;;0.70;;
62709;SDS011;48770;51.624;5.886;2023-04-03T07:37:30;2.45;;;0.77;;
62709;SDS011;48770;51.624;5.886;2023-04-03T07:39:55;3.38;;;0.80;;
62709;SDS011;48770;51.624;5.886;2023-04-03T07:42:22;1.80;;;0.95;;
62709;SDS011;48770;51.624;5.886;2023-04-03T07:44:47;1.60;;;0.75;;
62709;SDS011;48770;51.624;5.886;2023-04-03T07:47:12;2.77;;;0.90;;
62709;SDS011;48770;51.624;5.886;2023-04-03T07:49:39;1.75;;;0.68;;
62709;SDS011;48770;51.624;5.886;2023-04-03T07:52:05;1.67;;;0.80;;
62709;SDS011;48770;51.624;5.886;2023-04-03T07:54:32;1.50;;;0.90;;
62709;SDS011;48770;51.624;5.886;2023-04-03T07:56:57;3.13;;;0.90;;
62709;SDS011;48770;51.624;5.886;2023-04-03T07:59:22;3.03;;;0.93;;
62709;SDS011;48770;51.624;5.886;2023-04-03T08:01:48;3.47;;;0.90;;
62709;SDS011;48770;51.624;5.886;2023-04-03T08:04:13;3.70;;;1.00;;
62709;SDS011;48770;51.624;5.886;2023-04-03T08:06:38;1.92;;;0.80;;
62709;SDS011;48770;51.624;5.886;2023-04-03T08:09:04;2.95;;;0.90;;
62709;SDS011;48770;51.624;5.886;2023-04-03T08:11:29;1.70;;;0.90;;
62709;SDS011;48770;51.624;5.886;2023-04-03T08:13:55;2.03;;;0.90;;
62709;SDS011;48770;51.624;5.886;2023-04-03T08:16:22;1.67;;;0.90;;
62709;SDS011;48770;51.624;5.886;2023-04-03T08:18:51;1.48;;;0.60;;
62709;SDS011;48770;51.624;5.886;2023-04-03T08:21:17;1.90;;;0.70;;
62709;SDS011;48770;51.624;5.886;2023-04-03T08:23:42;2.35;;;0.77;;
62709;SDS011;48770;51.624;5.886;2023-04-03T08:26:08;2.85;;;0.80;;
62709;SDS011;48770;51.624;5.886;2023-04-03T08:28:38;2.22;;;0.75;;
62709;SDS011;48770;51.624;5.886;2023-04-03T08:31:05;2.22;;;0.50;;
62709;SDS011;48770;51.624;5.886;2023-04-03T08:33:32;1.67;;;0.90;;
62709;SDS011;48770;51.624;5.886;2023-04-03T08:36:00;2.35;;;0.65;;
62709;SDS011;48770;51.624;5.886;2023-04-03T08:38:26;1.75;;;0.80;;
62709;SDS011;48770;51.624;5.886;2023-04-03T08:41:02;2.35;;;0.70;;
62709;SDS011;48770;51.624;5.886;2023-04-03T08:43:47;2.53;;;0.70;;
62709;SDS011;48770;51.624;5.886;2023-04-03T08:46:22;2.92;;;0.98;;
62709;SDS011;48770;51.624;5.886;2023-04-03T08:48:56;2.40;;;0.73;;
62709;SDS011;48770;51.624;5.886;2023-04-03T08:51:23;1.48;;;0.52;;
62709;SDS011;48770;51.624;5.886;2023-04-03T08:54:00;1.42;;;0.68;;
62709;SDS011;48770;51.624;5.886;2023-04-03T08:56:30;2.30;;;0.60;;
62709;SDS011;48770;51.624;5.886;2023-04-03T08:58:59;2.17;;;0.75;;
62709;SDS011;48770;51.624;5.886;2023-04-03T09:01:30;2.65;;;0.80;;
62709;SDS011;48770;51.624;5.886;2023-04-03T09:04:00;2.20;;;0.73;;
62709;SDS011;48770;51.624;5.886;2023-04-03T09:06:28;2.58;;;0.88;;
62709;SDS011;48770;51.624;5.886;2023-04-03T09:15:04;1.45;;;0.57;;
62709;SDS011;48770;51.624;5.886;2023-04-03T09:20:21;1.80;;;0.75;;
62709;SDS011;48770;51.624;5.886;2023-04-03T09:22:49;2.35;;;0.57;;
62709;SDS011;48770;51.624;5.886;2023-04-03T09:25:20;1.75;;;0.45;;
62709;SDS011;48770;51.624;5.886;2023-04-03T09:27:49;1.65;;;0.40;;
62709;SDS011;48770;51.624;5.886;2023-04-03T09:30:17;0.63;;;0.50;;
62709;SDS011;48770;51.624;5.886;2023-04-03T09:32:45;0.95;;;0.40;;
62709;SDS011;48770;51.624;5.886;2023-04-03T09:35:25;1.45;;;0.50;;
62709;SDS011;48770;51.624;5.886;2023-04-03T09:38:00;1.33;;;0.43;;
62709;SDS011;48770;51.624;5.886;2023-04-03T09:40:39;1.02;;;0.45;;
62709;SDS011;48770;51.624;5.886;2023-04-03T09:45:51;1.88;;;0.47;;
62709;SDS011;48770;51.624;5.886;2023-04-03T09:48:19;1.23;;;0.22;;
62709;SDS011;48770;51.624;5.886;2023-04-03T09:51:19;2.15;;;0.30;;
62709;SDS011;48770;51.624;5.886;2023-04-03T09:53:40;1.73;;;0.60;;
62709;SDS011;48770;51.624;5.886;2023-04-03T09:58:38;1.13;;;0.40;;
62709;SDS011;48770;51.624;5.886;2023-04-03T10:01:08;1.17;;;0.30;;
62709;SDS011;48770;51.624;5.886;2023-04-03T10:03:47;0.40;;;0.20;;
62709;SDS011;48770;51.624;5.886;2023-04-03T10:06:29;0.98;;;0.30;;
62709;SDS011;48770;51.624;5.886;2023-04-03T10:09:00;0.98;;;0.50;;
62709;SDS011;48770;51.624;5.886;2023-04-03T10:11:29;0.95;;;0.20;;
62709;SDS011;48770;51.624;5.886;2023-04-03T10:14:02;0.52;;;0.30;;
62709;SDS011;48770;51.624;5.886;2023-04-03T10:16:34;0.65;;;0.30;;
62709;SDS011;48770;51.624;5.886;2023-04-03T10:19:12;1.27;;;0.40;;
62709;SDS011;48770;51.624;5.886;2023-04-03T10:21:55;0.98;;;0.40;;
62709;SDS011;48770;51.624;5.886;2023-04-03T10:35:53;0.60;;;0.30;;
62709;SDS011;48770;51.624;5.886;2023-04-03T10:41:34;0.80;;;0.20;;
62709;SDS011;48770;51.624;5.886;2023-04-03T10:56:01;1.40;;;0.30;;
62709;SDS011;48770;51.624;5.886;2023-04-03T10:58:35;0.63;;;0.20;;
62709;SDS011;48770;51.624;5.886;2023-04-03T11:01:11;0.98;;;0.22;;
62709;SDS011;48770;51.624;5.886;2023-04-03T11:03:45;0.13;;;0.10;;
62709;SDS011;48770;51.624;5.886;2023-04-03T11:06:15;1.17;;;0.30;;
62709;SDS011;48770;51.624;5.886;2023-04-03T11:08:45;1.27;;;0.30;;
62709;SDS011;48770;51.624;5.886;2023-04-03T11:11:13;1.10;;;0.32;;
62709;SDS011;48770;51.624;5.886;2023-04-03T11:13:43;0.90;;;0.50;;
62709;SDS011;48770;51.624;5.886;2023-04-03T11:16:19;0.93;;;0.38;;
62709;SDS011;48770;51.624;5.886;2023-04-03T11:18:52;0.30;;;0.20;;
62709;SDS011;48770;51.624;5.886;2023-04-03T11:21:29;1.70;;;0.30;;
62709;SDS011;48770;51.624;5.886;2023-04-03T11:24:00;1.30;;;0.38;;
62709;SDS011;48770;51.624;5.886;2023-04-03T11:26:30;1.02;;;0.40;;
62709;SDS011;48770;51.624;5.886;2023-04-03T11:29:03;0.75;;;0.22;;
62709;SDS011;48770;51.624;5.886;2023-04-03T11:34:19;0.60;;;0.40;;
62709;SDS011;48770;51.624;5.886;2023-04-03T11:36:54;1.23;;;0.40;;
62709;SDS011;48770;51.624;5.886;2023-04-03T11:39:24;1.00;;;0.60;;
62709;SDS011;48770;51.624;5.886;2023-04-03T11:41:53;0.55;;;0.35;;
62709;SDS011;48770;51.624;5.886;2023-04-03T11:44:30;1.10;;;0.30;;
62709;SDS011;48770;51.624;5.886;2023-04-03T11:46:59;1.15;;;0.50;;
62709;SDS011;48770;51.624;5.886;2023-04-03T12:03:33;1.63;;;0.38;;
62709;SDS011;48770;51.624;5.886;2023-04-03T12:08:46;1.77;;;0.60;;
62709;SDS011;48770;51.624;5.886;2023-04-03T12:11:15;0.95;;;0.40;;
62709;SDS011;48770;51.624;5.886;2023-04-03T12:16:21;1.23;;;0.45;;
62709;SDS011;48770;51.624;5.886;2023-04-03T12:21:13;0.47;;;0.37;;
62709;SDS011;48770;51.624;5.886;2023-04-03T12:24:03;2.45;;;0.20;;
62709;SDS011;48770;51.624;5.886;2023-04-03T12:29:24;0.55;;;0.30;;
62709;SDS011;48770;51.624;5.886;2023-04-03T12:43:28;1.27;;;0.80;;
62709;SDS011;48770;51.624;5.886;2023-04-03T12:48:30;1.83;;;0.40;;
62709;SDS011;48770;51.624;5.886;2023-04-03T12:50:58;1.52;;;0.40;;
62709;SDS011;48770;51.624;5.886;2023-04-03T12:53:26;2.28;;;0.40;;
62709;SDS011;48770;51.624;5.886;2023-04-03T12:55:55;0.77;;;0.30;;
62709;SDS011;48770;51.624;5.886;2023-04-03T12:58:26;3.13;;;0.50;;
62709;SDS011;48770;51.624;5.886;2023-04-03T13:01:03;0.90;;;0.30;;
62709;SDS011;48770;51.624;5.886;2023-04-03T13:03:34;1.65;;;0.40;;
62709;SDS011;48770;51.624;5.886;2023-04-03T13:06:01;0.70;;;0.32;;
62709;SDS011;48770;51.624;5.886;2023-04-03T13:08:29;1.40;;;0.30;;
62709;SDS011;48770;51.624;5.886;2023-04-03T13:11:00;2.00;;;0.77;;
62709;SDS011;48770;51.624;5.886;2023-04-03T13:13:27;0.50;;;0.20;;
62709;SDS011;48770;51.624;5.886;2023-04-03T13:15:54;0.68;;;0.15;;
62709;SDS011;48770;51.624;5.886;2023-04-03T13:18:33;1.13;;;0.40;;
62709;SDS011;48770;51.624;5.886;2023-04-03T13:23:30;0.60;;;0.25;;
62709;SDS011;48770;51.624;5.886;2023-04-03T13:25:59;1.27;;;0.40;;
62709;SDS011;48770;51.624;5.886;2023-04-03T13:28:28;0.80;;;0.38;;
62709;SDS011;48770;51.624;5.886;2023-04-03T13:33:39;1.13;;;0.25;;
62709;SDS011;48770;51.624;5.886;2023-04-03T13:36:18;0.93;;;0.30;;
62709;SDS011;48770;51.624;5.886;2023-04-03T13:38:46;0.77;;;0.32;;
62709;SDS011;48770;51.624;5.886;2023-04-03T13:41:25;1.33;;;0.40;;
62709;SDS011;48770;51.624;5.886;2023-04-03T13:46:51;0.55;;;0.20;;
62709;SDS011;48770;51.624;5.886;2023-04-03T13:49:34;0.68;;;0.30;;
62709;SDS011;48770;51.624;5.886;2023-04-03T13:52:48;0.60;;;0.25;;
62709;SDS011;48770;51.624;5.886;2023-04-03T13:54:56;0.65;;;0.20;;
62709;SDS011;48770;51.624;5.886;2023-04-03T13:57:23;0.30;;;0.20;;
62709;SDS011;48770;51.624;5.886;2023-04-03T13:59:49;2.55;;;0.47;;
62709;SDS011;48770;51.624;5.886;2023-04-03T14:02:17;0.68;;;0.30;;
62709;SDS011;48770;51.624;5.886;2023-04-03T14:07:08;1.70;;;0.23;;
62709;SDS011;48770;51.624;5.886;2023-04-03T14:09:33;1.00;;;0.30;;
62709;SDS011;48770;51.624;5.886;2023-04-03T14:12:02;0.50;;;0.32;;
62709;SDS011;48770;51.624;5.886;2023-04-03T14:14:32;0.75;;;0.30;;
62709;SDS011;48770;51.624;5.886;2023-04-03T14:16:59;1.73;;;0.50;;
62709;SDS011;48770;51.624;5.886;2023-04-03T14:19:28;0.95;;;0.30;;
62709;SDS011;48770;51.624;5.886;2023-04-03T14:21:55;0.57;;;0.20;;
62709;SDS011;48770;51.624;5.886;2023-04-03T14:24:22;0.80;;;0.32;;
62709;SDS011;48770;51.624;5.886;2023-04-03T14:26:51;0.70;;;0.22;;
62709;SDS011;48770;51.624;5.886;2023-04-03T14:29:19;1.63;;;0.40;;
62709;SDS011;48770;51.624;5.886;2023-04-03T14:31:46;0.52;;;0.32;;
62709;SDS011;48770;51.624;5.886;2023-04-03T14:34:13;3.15;;;0.60;;
62709;SDS011;48770;51.624;5.886;2023-04-03T14:36:40;1.17;;;0.40;;
62709;SDS011;48770;51.624;5.886;2023-04-03T14:39:08;1.60;;;0.40;;
62709;SDS011;48770;51.624;5.886;2023-04-03T14:41:40;1.10;;;0.40;;
62709;SDS011;48770;51.624;5.886;2023-04-03T14:44:07;1.73;;;0.43;;
62709;SDS011;48770;51.624;5.886;2023-04-03T14:46:34;0.95;;;0.40;;
62709;SDS011;48770;51.624;5.886;2023-04-03T14:49:03;1.50;;;0.50;;
62709;SDS011;48770;51.624;5.886;2023-04-03T14:51:37;0.85;;;0.32;;
62709;SDS011;48770;51.624;5.886;2023-04-03T14:54:02;1.42;;;0.57;;
62709;SDS011;48770;51.624;5.886;2023-04-03T14:56:30;2.03;;;0.50;;
62709;SDS011;48770;51.624;5.886;2023-04-03T14:58:59;3.15;;;0.73;;
62709;SDS011;48770;51.624;5.886;2023-04-03T15:01:26;4.22;;;0.60;;
62709;SDS011;48770;51.624;5.886;2023-04-03T15:03:52;1.70;;;0.80;;
62709;SDS011;48770;51.624;5.886;2023-04-03T15:06:18;2.60;;;0.70;;
62709;SDS011;48770;51.624;5.886;2023-04-03T15:08:45;2.60;;;0.60;;
62709;SDS011;48770;51.624;5.886;2023-04-03T15:11:11;1.35;;;0.63;;
62709;SDS011;48770;51.624;5.886;2023-04-03T15:13:38;1.73;;;0.80;;
62709;SDS011;48770;51.624;5.886;2023-04-03T15:16:04;1.95;;;0.80;;
62709;SDS011;48770;51.624;5.886;2023-04-03T15:18:32;1.67;;;0.68;;
62709;SDS011;48770;51.624;5.886;2023-04-03T15:21:02;1.27;;;0.70;;
62709;SDS011;48770;51.624;5.886;2023-04-03T15:23:28;2.80;;;1.00;;
62709;SDS011;48770;51.624;5.886;2023-04-03T15:25:55;2.20;;;0.93;;
62709;SDS011;48770;51.624;5.886;2023-04-03T15:28:37;2.78;;;1.10;;
62709;SDS011;48770;51.624;5.886;2023-04-03T15:31:05;1.85;;;0.93;;
62709;SDS011;48770;51.624;5.886;2023-04-03T15:33:31;2.28;;;1.00;;
62709;SDS011;48770;51.624;5.886;2023-04-03T15:35:57;2.83;;;1.25;;
62709;SDS011;48770;51.624;5.886;2023-04-03T15:38:23;1.80;;;1.02;;
62709;SDS011;48770;51.624;5.886;2023-04-03T15:40:48;3.28;;;1.35;;
62709;SDS011;48770;51.624;5.886;2023-04-03T15:43:14;1.67;;;0.87;;
62709;SDS011;48770;51.624;5.886;2023-04-03T15:45:39;2.17;;;1.20;;
62709;SDS011;48770;51.624;5.886;2023-04-03T15:48:06;2.97;;;1.30;;
62709;SDS011;48770;51.624;5.886;2023-04-03T15:50:32;3.05;;;1.38;;
62709;SDS011;48770;51.624;5.886;2023-04-03T15:52:58;2.63;;;1.25;;
62709;SDS011;48770;51.624;5.886;2023-04-03T15:55:24;2.28;;;1.30;;
62709;SDS011;48770;51.624;5.886;2023-04-03T15:57:51;2.15;;;1.15;;
62709;SDS011;48770;51.624;5.886;2023-04-03T16:00:17;3.60;;;1.50;;
62709;SDS011;48770;51.624;5.886;2023-04-03T16:02:43;4.32;;;1.55;;
62709;SDS011;48770;51.624;5.886;2023-04-03T16:05:10;3.47;;;1.35;;
62709;SDS011;48770;51.624;5.886;2023-04-03T16:07:37;2.08;;;1.20;;
62709;SDS011;48770;51.624;5.886;2023-04-03T16:10:03;3.50;;;1.38;;
62709;SDS011;48770;51.624;5.886;2023-04-03T16:12:30;2.30;;;1.50;;
62709;SDS011;48770;51.624;5.886;2023-04-03T16:14:55;3.90;;;1.88;;
62709;SDS011;48770;51.624;5.886;2023-04-03T16:17:21;3.15;;;1.38;;
62709;SDS011;48770;51.624;5.886;2023-04-03T16:19:46;4.35;;;1.50;;
62709;SDS011;48770;51.624;5.886;2023-04-03T16:22:11;3.80;;;1.60;;
62709;SDS011;48770;51.624;5.886;2023-04-03T16:24:37;4.40;;;1.75;;
62709;SDS011;48770;51.624;5.886;2023-04-03T16:27:03;2.80;;;1.33;;
62709;SDS011;48770;51.624;5.886;2023-04-03T16:29:28;3.58;;;1.40;;
62709;SDS011;48770;51.624;5.886;2023-04-03T16:31:54;2.42;;;1.45;;
62709;SDS011;48770;51.624;5.886;2023-04-03T16:34:19;3.28;;;1.58;;